createdAt,value
2023-02-22T00:00:44.657Z,25.92
2023-02-22T00:03:16.270Z,25.05
2023-02-22T00:05:46.956Z,25.23
2023-02-22T00:08:15.282Z,24.77
2023-02-22T00:10:41.786Z,27.67
2023-02-22T00:13:10.367Z,26.60
2023-02-22T00:15:37.212Z,21.77
2023-02-22T00:18:04.834Z,20.67
2023-02-22T00:20:31.251Z,20.50
2023-02-22T00:22:57.698Z,19.00
2023-02-22T00:25:24.855Z,17.85
2023-02-22T00:27:52.865Z,17.98
2023-02-22T00:30:26.628Z,11.70
2023-02-22T00:32:55.891Z,15.73
2023-02-22T00:35:25.397Z,16.42
2023-02-22T00:37:54.889Z,15.50
2023-02-22T00:40:23.915Z,16.95
2023-02-22T00:42:51.062Z,15.30
2023-02-22T00:45:22.051Z,14.45
2023-02-22T00:47:49.842Z,13.30
2023-02-22T00:50:17.535Z,12.32
2023-02-22T00:52:45.007Z,13.10
2023-02-22T00:55:17.410Z,18.15
2023-02-22T00:57:43.870Z,13.57
2023-02-22T01:00:17.100Z,15.80
2023-02-22T01:02:45.041Z,22.23
2023-02-22T01:05:14.116Z,20.75
2023-02-22T01:07:41.185Z,25.25
2023-02-22T01:10:08.991Z,20.23
2023-02-22T01:12:36.202Z,18.63
2023-02-22T01:15:10.292Z,18.67
2023-02-22T01:17:38.616Z,17.33
2023-02-22T01:20:10.409Z,13.25
2023-02-22T01:22:37.438Z,12.80
2023-02-22T01:25:06.285Z,9.95
2023-02-22T01:27:33.666Z,14.38
2023-02-22T01:30:00.413Z,10.18
2023-02-22T01:32:26.900Z,10.48
2023-02-22T01:34:54.014Z,8.23
2023-02-22T01:37:20.420Z,10.27
2023-02-22T01:39:47.326Z,11.98
2023-02-22T01:42:13.744Z,7.00
2023-02-22T01:44:41.487Z,15.73
2023-02-22T01:47:10.931Z,10.60
2023-02-22T01:49:50.618Z,9.05
2023-02-22T01:52:20.374Z,10.20
2023-02-22T01:54:58.148Z,11.57
2023-02-22T01:57:37.561Z,8.23
2023-02-22T02:00:11.175Z,9.75
2023-02-22T02:02:45.924Z,10.15
2023-02-22T02:05:13.924Z,11.75
2023-02-22T02:07:41.310Z,13.25
2023-02-22T02:10:14.281Z,9.05
2023-02-22T02:12:47.593Z,10.48
2023-02-22T02:15:21.093Z,8.45
2023-02-22T02:17:49.992Z,8.07
2023-02-22T02:20:25.080Z,8.15
2023-02-22T02:23:14.902Z,10.80
2023-02-22T02:26:03.929Z,8.43
2023-02-22T02:28:47.537Z,10.68
2023-02-22T02:31:56.226Z,10.18
2023-02-22T02:34:43.083Z,12.00
2023-02-22T02:37:21.937Z,8.57
2023-02-22T02:40:17.809Z,9.80
2023-02-22T02:42:55.181Z,11.35
2023-02-22T02:45:28.881Z,10.10
2023-02-22T02:47:58.683Z,11.07
2023-02-22T02:50:36.773Z,8.80
2023-02-22T02:53:07.408Z,9.23
2023-02-22T02:55:36.564Z,12.48
2023-02-22T02:58:07.598Z,7.53
2023-02-22T03:00:41.066Z,8.90
2023-02-22T03:03:25.894Z,8.57
2023-02-22T03:06:01.807Z,9.93
2023-02-22T03:08:41.999Z,9.70
2023-02-22T03:11:29.147Z,12.48
2023-02-22T03:14:11.052Z,13.52
2023-02-22T03:17:05.104Z,11.70
2023-02-22T03:19:38.257Z,12.68
2023-02-22T03:22:18.100Z,11.00
2023-02-22T03:24:58.926Z,11.05
2023-02-22T03:27:33.811Z,8.02
2023-02-22T03:30:07.688Z,10.15
2023-02-22T03:32:38.295Z,10.48
2023-02-22T03:37:40.810Z,11.93
2023-02-22T03:40:14.402Z,12.45
2023-02-22T03:42:53.504Z,11.57
2023-02-22T03:45:26.884Z,18.25
2023-02-22T03:48:02.965Z,14.65
2023-02-22T03:50:36.759Z,14.73
2023-02-22T03:53:04.967Z,13.70
2023-02-22T03:55:34.960Z,13.75
2023-02-22T03:58:09.197Z,13.00
2023-02-22T04:00:36.301Z,13.10
2023-02-22T04:03:03.393Z,9.73
2023-02-22T04:05:30.235Z,9.60
2023-02-22T04:07:58.528Z,12.48
2023-02-22T04:10:26.341Z,11.70
2023-02-22T04:12:52.979Z,15.18
2023-02-22T04:15:23.337Z,15.00
2023-02-22T04:17:52.973Z,12.10
2023-02-22T04:20:20.154Z,12.00
2023-02-22T04:22:59.686Z,14.75
2023-02-22T04:25:26.334Z,9.85
2023-02-22T04:27:53.042Z,10.20
2023-02-22T04:30:29.449Z,17.52
2023-02-22T04:32:57.254Z,12.32
2023-02-22T04:35:23.827Z,14.05
2023-02-22T04:37:50.222Z,13.70
2023-02-22T04:40:17.892Z,20.60
2023-02-22T04:42:44.739Z,19.45
2023-02-22T04:45:11.689Z,19.83
2023-02-22T04:47:39.177Z,20.83
2023-02-22T04:50:07.912Z,21.77
2023-02-22T04:52:34.432Z,18.77
2023-02-22T04:55:01.335Z,18.80
2023-02-22T04:57:27.943Z,17.15
2023-02-22T04:59:55.356Z,17.33
2023-02-22T05:02:23.714Z,18.00
2023-02-22T05:04:50.654Z,17.23
2023-02-22T05:07:17.913Z,16.00
2023-02-22T05:09:44.419Z,17.52
2023-02-22T05:12:10.901Z,13.98
2023-02-22T05:14:37.521Z,16.02
2023-02-22T05:17:04.484Z,16.33
2023-02-22T05:19:30.983Z,17.20
2023-02-22T05:21:57.679Z,19.05
2023-02-22T05:24:24.103Z,18.00
2023-02-22T05:26:51.380Z,17.30
2023-02-22T05:29:17.980Z,16.65
2023-02-22T05:31:44.493Z,15.43
2023-02-22T05:34:11.017Z,13.98
2023-02-22T05:36:37.607Z,19.10
2023-02-22T05:39:05.332Z,19.00
2023-02-22T05:41:31.781Z,19.08
2023-02-22T05:43:58.242Z,17.02
2023-02-22T05:46:25.113Z,22.13
2023-02-22T05:48:51.515Z,18.77
2023-02-22T05:51:19.531Z,18.92
2023-02-22T05:53:46.094Z,21.80
2023-02-22T05:56:12.513Z,18.77
2023-02-22T05:58:38.920Z,18.55
2023-02-22T06:01:05.529Z,19.35
2023-02-22T06:03:31.957Z,24.08
2023-02-22T06:05:58.414Z,21.95
2023-02-22T06:08:24.837Z,26.00
2023-02-22T06:10:51.318Z,29.10
2023-02-22T06:13:17.764Z,24.40
2023-02-22T06:15:44.231Z,24.25
2023-02-22T06:18:10.988Z,21.02
2023-02-22T06:20:37.479Z,23.60
2023-02-22T06:23:03.900Z,28.10
2023-02-22T06:25:31.373Z,22.38
2023-02-22T06:27:59.404Z,22.23
2023-02-22T06:30:27.034Z,26.55
2023-02-22T06:32:53.842Z,24.38
2023-02-22T06:35:21.113Z,19.73
2023-02-22T06:37:47.745Z,25.23
2023-02-22T06:40:15.695Z,22.48
2023-02-22T06:42:42.505Z,24.75
2023-02-22T06:45:09.863Z,21.25
2023-02-22T06:47:41.218Z,23.65
2023-02-22T06:52:34.598Z,23.80
2023-02-22T06:55:01.045Z,25.15
2023-02-22T06:57:27.536Z,25.83
2023-02-22T06:59:53.939Z,27.90
2023-02-22T07:02:20.325Z,28.00
2023-02-22T07:04:46.769Z,27.80
2023-02-22T07:07:13.154Z,29.83
2023-02-22T07:09:39.545Z,28.40
2023-02-22T07:12:07.179Z,27.17
2023-02-22T07:14:33.625Z,32.17
2023-02-22T07:17:00.036Z,26.77
2023-02-22T07:19:26.535Z,25.70
2023-02-22T07:21:59.042Z,23.98
2023-02-22T07:24:28.262Z,29.65
2023-02-22T07:26:54.824Z,30.17
2023-02-22T07:29:22.403Z,29.42
2023-02-22T07:31:49.217Z,25.05
2023-02-22T07:34:15.620Z,23.88
2023-02-22T07:36:42.013Z,27.95
2023-02-22T07:39:08.723Z,27.88
2023-02-22T07:41:35.338Z,24.63
2023-02-22T07:44:01.836Z,27.05
2023-02-22T07:46:28.301Z,23.13
2023-02-22T07:48:54.732Z,24.15
2023-02-22T07:51:21.286Z,25.40
2023-02-22T07:53:48.666Z,23.63
2023-02-22T07:56:15.808Z,30.05
2023-02-22T07:58:42.202Z,30.77
2023-02-22T08:01:08.859Z,28.08
2023-02-22T08:03:36.747Z,31.17
2023-02-22T08:06:05.903Z,28.73
2023-02-22T08:08:32.642Z,29.90
2023-02-22T08:10:59.105Z,26.67
2023-02-22T08:13:25.641Z,27.20
2023-02-22T08:15:53.882Z,25.23
2023-02-22T08:18:22.401Z,25.08
2023-02-22T08:20:50.373Z,26.58
2023-02-22T08:23:18.930Z,22.35
2023-02-22T08:25:45.401Z,27.17
2023-02-22T08:28:15.140Z,26.08
2023-02-22T08:30:45.267Z,26.08
2023-02-22T08:33:15.173Z,27.02
2023-02-22T08:35:41.917Z,25.58
2023-02-22T08:38:15.086Z,23.73
2023-02-22T08:40:41.511Z,26.55
2023-02-22T08:43:07.917Z,27.30
2023-02-22T08:45:34.663Z,23.30
2023-02-22T08:48:02.226Z,22.38
2023-02-22T08:50:33.412Z,24.58
2023-02-22T08:53:01.715Z,23.75
2023-02-22T08:55:32.182Z,20.45
2023-02-22T08:58:01.142Z,21.83
2023-02-22T09:00:29.524Z,22.30
2023-02-22T09:02:56.435Z,14.38
2023-02-22T09:05:23.140Z,18.13
2023-02-22T09:07:49.719Z,15.95
2023-02-22T09:10:24.935Z,10.85
2023-02-22T09:12:52.568Z,10.80
2023-02-22T09:15:19.339Z,21.27
2023-02-22T09:17:46.080Z,9.23
2023-02-22T09:20:12.896Z,7.28
2023-02-22T09:22:40.371Z,11.73
2023-02-22T09:25:16.209Z,7.28
2023-02-22T09:27:44.239Z,6.43
2023-02-22T09:30:23.921Z,7.65
2023-02-22T09:32:56.323Z,4.93
2023-02-22T09:35:29.400Z,6.32
2023-02-22T09:37:58.420Z,9.20
2023-02-22T09:40:29.594Z,7.68
2023-02-22T09:46:24.611Z,11.05
2023-02-22T09:49:05.973Z,18.10
2023-02-22T09:54:18.160Z,10.95
2023-02-22T09:56:46.972Z,9.20
2023-02-22T09:59:21.696Z,12.55
2023-02-22T10:01:53.946Z,14.30
2023-02-22T10:04:35.604Z,11.18
2023-02-22T10:07:12.271Z,12.75
2023-02-22T10:09:45.000Z,16.40
2023-02-22T10:12:19.831Z,12.70
2023-02-22T10:15:07.548Z,9.82
2023-02-22T10:17:58.857Z,8.90
2023-02-22T10:20:37.200Z,10.60
2023-02-22T10:23:25.736Z,15.18
2023-02-22T10:25:57.366Z,10.95
2023-02-22T10:28:31.589Z,9.38
2023-02-22T10:31:05.770Z,16.50
2023-02-22T10:33:39.405Z,9.82
2023-02-22T10:36:07.529Z,8.73
2023-02-22T10:38:35.402Z,13.60
2023-02-22T10:41:23.683Z,10.98
2023-02-22T10:43:50.321Z,9.27
2023-02-22T10:46:20.950Z,9.93
2023-02-22T10:48:51.506Z,10.93
2023-02-22T10:51:18.016Z,9.60
2023-02-22T10:53:53.492Z,10.35
2023-02-22T10:56:26.704Z,7.93
2023-02-22T10:58:59.492Z,11.85
2023-02-22T11:01:28.886Z,9.77
2023-02-22T11:04:10.580Z,10.23
2023-02-22T11:06:38.511Z,9.90
2023-02-22T11:09:22.438Z,18.88
2023-02-22T11:11:50.719Z,15.07
2023-02-22T11:14:28.922Z,13.35
2023-02-22T11:16:57.335Z,13.63
2023-02-22T11:19:29.431Z,12.82
2023-02-22T11:22:05.947Z,14.77
2023-02-22T11:24:43.564Z,13.77
2023-02-22T11:27:38.091Z,13.73
2023-02-22T11:30:16.813Z,13.57
2023-02-22T11:32:46.679Z,13.38
2023-02-22T11:35:38.854Z,14.68
2023-02-22T11:38:28.251Z,16.35
2023-02-22T11:41:16.080Z,15.85
2023-02-22T11:43:45.384Z,13.75
2023-02-22T11:46:16.927Z,14.93
2023-02-22T11:48:57.563Z,22.13
2023-02-22T11:51:47.563Z,18.27
2023-02-22T11:54:29.032Z,16.33
2023-02-22T11:57:39.074Z,18.73
2023-02-22T12:00:33.400Z,16.33
2023-02-22T12:03:34.432Z,17.85
2023-02-22T12:06:00.867Z,17.42
2023-02-22T12:08:45.583Z,13.85
2023-02-22T12:11:27.165Z,15.68
2023-02-22T12:14:12.004Z,13.45
2023-02-22T12:16:38.634Z,13.90
2023-02-22T12:19:27.429Z,16.35
2023-02-22T12:22:03.391Z,15.35
2023-02-22T12:25:23.340Z,15.68
2023-02-22T12:27:55.907Z,17.75
2023-02-22T12:30:28.807Z,13.70
2023-02-22T12:32:59.685Z,16.02
2023-02-22T12:35:37.866Z,15.20
2023-02-22T12:38:16.831Z,16.45
2023-02-22T12:41:13.905Z,20.45
2023-02-22T12:43:48.521Z,16.48
2023-02-22T12:46:24.340Z,16.20
2023-02-22T12:48:53.805Z,15.60
2023-02-22T12:51:46.072Z,16.95
2023-02-22T12:54:34.237Z,16.08
2023-02-22T12:57:11.801Z,16.40
2023-02-22T12:59:47.776Z,18.35
2023-02-22T13:02:36.889Z,17.83
2023-02-22T13:05:03.495Z,16.52
2023-02-22T13:07:42.861Z,18.35
2023-02-22T13:10:36.514Z,15.60
2023-02-22T13:13:21.494Z,23.33
2023-02-22T13:16:00.582Z,17.92
2023-02-22T13:18:35.065Z,20.38
2023-02-22T13:21:09.631Z,15.13
2023-02-22T13:24:05.214Z,25.90
2023-02-22T13:26:47.476Z,25.15
2023-02-22T13:29:28.378Z,17.70
2023-02-22T13:32:24.815Z,20.60
2023-02-22T13:35:12.766Z,20.70
2023-02-22T13:37:48.266Z,21.65
2023-02-22T13:40:23.850Z,23.25
2023-02-22T13:43:38.455Z,21.63
2023-02-22T13:46:22.888Z,21.83
2023-02-22T13:49:25.653Z,21.88
2023-02-22T13:52:13.641Z,19.00
2023-02-22T13:54:54.370Z,24.00
2023-02-22T13:57:27.561Z,17.55
2023-02-22T14:00:15.824Z,22.00
2023-02-22T14:03:24.018Z,23.80
2023-02-22T14:05:53.026Z,28.33
2023-02-22T14:08:19.477Z,23.23
2023-02-22T14:10:55.880Z,26.55
2023-02-22T14:13:26.558Z,27.60
2023-02-22T14:16:08.093Z,26.92
2023-02-22T14:18:46.390Z,56.88
2023-02-22T14:21:14.304Z,37.53
2023-02-22T14:23:43.274Z,44.35
2023-02-22T14:26:29.775Z,31.20
2023-02-22T14:29:08.188Z,47.40
2023-02-22T14:31:57.372Z,40.70
2023-02-22T14:34:53.871Z,25.95
2023-02-22T14:37:25.870Z,24.52
2023-02-22T14:39:52.246Z,32.13
2023-02-22T14:42:21.471Z,26.13
2023-02-22T14:44:54.005Z,26.08
2023-02-22T14:47:29.567Z,25.95
2023-02-22T14:50:08.033Z,26.58
2023-02-22T14:52:38.421Z,27.05
2023-02-22T14:55:26.188Z,25.80
2023-02-22T14:58:18.674Z,31.17
2023-02-22T15:00:47.886Z,25.55
2023-02-22T15:03:37.222Z,29.83
2023-02-22T15:06:14.843Z,23.92
2023-02-22T15:08:46.409Z,30.48
2023-02-22T15:11:32.465Z,30.20
2023-02-22T15:14:00.894Z,28.73
2023-02-22T15:16:31.991Z,29.70
2023-02-22T15:19:03.454Z,24.65
2023-02-22T15:21:31.849Z,24.77
2023-02-22T15:24:01.292Z,21.98
2023-02-22T15:26:37.159Z,24.02
2023-02-22T15:29:15.562Z,27.98
2023-02-22T15:31:48.554Z,26.00
2023-02-22T15:34:15.063Z,23.33
2023-02-22T15:36:43.337Z,26.90
2023-02-22T15:39:29.248Z,30.35
2023-02-22T15:42:07.767Z,22.63
2023-02-22T15:44:39.486Z,23.92
2023-02-22T15:47:07.217Z,21.98
2023-02-22T15:49:37.707Z,24.45
2023-02-22T15:52:23.936Z,21.98
2023-02-22T15:54:51.988Z,24.77
2023-02-22T15:57:21.232Z,24.50
2023-02-22T15:59:52.822Z,25.40
2023-02-22T16:02:30.040Z,23.25
2023-02-22T16:05:12.137Z,24.15
2023-02-22T16:07:45.588Z,24.08
2023-02-22T16:10:25.468Z,25.63
2023-02-22T16:13:09.120Z,28.15
2023-02-22T16:15:36.982Z,23.85
2023-02-22T16:18:26.239Z,25.75
2023-02-22T16:21:04.838Z,31.10
2023-02-22T16:23:33.532Z,24.67
2023-02-22T16:26:27.841Z,24.55
2023-02-22T16:29:00.054Z,27.95
2023-02-22T16:31:35.269Z,27.58
2023-02-22T16:34:03.578Z,28.67
2023-02-22T16:36:39.612Z,28.67
2023-02-22T16:39:08.577Z,30.85
2023-02-22T16:41:35.085Z,32.17
2023-02-22T16:44:01.885Z,22.90
2023-02-22T16:46:28.436Z,27.10
2023-02-22T16:48:54.900Z,31.65
2023-02-22T16:51:25.628Z,31.02
2023-02-22T16:53:56.781Z,29.23
2023-02-22T16:56:30.784Z,27.60
2023-02-22T16:59:00.608Z,29.83
2023-02-22T17:01:27.054Z,26.55
2023-02-22T17:03:56.325Z,24.42
2023-02-22T17:06:22.829Z,24.50
2023-02-22T17:08:51.882Z,22.48
2023-02-22T17:11:18.847Z,21.85
2023-02-22T17:13:47.172Z,25.25
2023-02-22T17:16:14.837Z,21.80
2023-02-22T17:18:41.513Z,19.77
2023-02-22T17:21:11.091Z,25.10
2023-02-22T17:23:37.789Z,22.27
2023-02-22T17:26:04.434Z,19.25
2023-02-22T17:28:31.370Z,20.42
2023-02-22T17:31:01.332Z,22.40
2023-02-22T17:33:31.010Z,20.13
2023-02-22T17:35:58.992Z,20.92
2023-02-22T17:38:28.785Z,21.45
2023-02-22T17:40:56.117Z,20.20
2023-02-22T17:43:23.267Z,24.90
2023-02-22T17:45:49.960Z,25.75
2023-02-22T17:48:18.265Z,21.70
2023-02-22T17:50:46.576Z,25.30
2023-02-22T17:53:13.706Z,27.73
2023-02-22T17:55:42.293Z,23.88
2023-02-22T17:58:14.546Z,19.25
2023-02-22T18:00:49.910Z,24.98
2023-02-22T18:03:25.333Z,21.95
2023-02-22T18:05:56.113Z,19.63
2023-02-22T18:08:24.441Z,23.80
2023-02-22T18:10:56.444Z,24.13
2023-02-22T18:13:25.268Z,21.08
2023-02-22T18:15:52.247Z,22.25
2023-02-22T18:18:18.931Z,24.00
2023-02-22T18:20:47.133Z,23.92
2023-02-22T18:23:16.319Z,29.33
2023-02-22T18:26:07.599Z,21.88
2023-02-22T18:28:36.027Z,20.98
2023-02-22T18:31:07.057Z,16.80
2023-02-22T18:33:33.452Z,19.08
2023-02-22T18:35:59.876Z,26.05
2023-02-22T18:38:26.415Z,38.08
2023-02-22T18:41:05.066Z,22.10
2023-02-22T18:43:34.136Z,23.45
2023-02-22T18:46:19.291Z,20.60
2023-02-22T18:48:52.894Z,20.73
2023-02-22T18:51:19.341Z,21.00
2023-02-22T18:53:47.761Z,26.70
2023-02-22T18:56:21.456Z,21.83
2023-02-22T18:58:48.668Z,24.70
2023-02-22T19:01:18.108Z,30.83
2023-02-22T19:03:47.046Z,32.70
2023-02-22T19:06:14.979Z,34.90
2023-02-22T19:08:43.224Z,40.33
2023-02-22T19:11:19.248Z,41.03
2023-02-22T19:13:50.747Z,46.55
2023-02-22T19:16:20.678Z,36.40
2023-02-22T19:18:49.162Z,31.85
2023-02-22T19:21:16.476Z,35.13
2023-02-22T19:23:46.005Z,39.97
2023-02-22T19:26:24.281Z,33.92
2023-02-22T19:28:52.967Z,31.98
2023-02-22T19:31:26.261Z,31.85
2023-02-22T19:33:52.923Z,22.52
2023-02-22T19:36:22.870Z,25.83
2023-02-22T19:38:49.298Z,28.75
2023-02-22T19:41:18.622Z,29.95
2023-02-22T19:43:46.898Z,29.35
2023-02-22T19:46:13.482Z,30.42
2023-02-22T19:48:41.177Z,28.83
2023-02-22T19:51:13.133Z,28.13
2023-02-22T19:53:40.996Z,30.42
2023-02-22T19:56:16.166Z,25.88
2023-02-22T19:58:44.842Z,26.70
2023-02-22T20:01:23.897Z,30.05
2023-02-22T20:04:05.101Z,27.70
2023-02-22T20:06:41.548Z,27.85
2023-02-22T20:09:11.261Z,32.95
2023-02-22T20:11:38.130Z,39.03
2023-02-22T20:14:06.332Z,32.92
2023-02-22T20:16:34.549Z,28.20
2023-02-22T20:19:01.207Z,26.80
2023-02-22T20:21:30.790Z,30.40
2023-02-22T20:23:59.236Z,31.63
2023-02-22T20:26:27.875Z,30.15
2023-02-22T20:28:54.543Z,30.80
2023-02-22T20:31:21.861Z,33.10
2023-02-22T20:33:52.885Z,32.83
2023-02-22T20:36:22.124Z,30.92
2023-02-22T20:38:52.371Z,29.17
2023-02-22T20:41:26.942Z,29.42
2023-02-22T20:43:55.115Z,31.20
2023-02-22T20:46:23.706Z,25.50
2023-02-22T20:48:54.516Z,31.30
2023-02-22T20:51:21.326Z,29.25
2023-02-22T20:53:48.868Z,29.35
2023-02-22T20:56:18.871Z,30.00
2023-02-22T20:58:45.767Z,34.65
2023-02-22T21:01:14.093Z,29.20
2023-02-22T21:03:43.973Z,35.67
2023-02-22T21:06:17.536Z,31.20
2023-02-22T21:08:45.769Z,34.30
2023-02-22T21:11:14.580Z,35.13
2023-02-22T21:13:41.732Z,35.28
2023-02-22T21:16:10.353Z,37.25
2023-02-22T21:18:37.243Z,35.50
2023-02-22T21:21:10.246Z,43.20
2023-02-22T21:23:37.509Z,42.47
2023-02-22T21:26:04.565Z,38.80
2023-02-22T21:28:50.457Z,38.97
2023-02-22T21:31:19.047Z,36.90
2023-02-22T21:33:49.384Z,37.10
2023-02-22T21:36:16.089Z,40.95
2023-02-22T21:38:44.684Z,35.28
2023-02-22T21:41:16.088Z,40.03
2023-02-22T21:43:43.921Z,52.05
2023-02-22T21:46:11.055Z,45.40
2023-02-22T21:48:39.059Z,38.70
2023-02-22T21:51:13.735Z,32.22
2023-02-22T21:53:45.810Z,43.80
2023-02-22T21:56:22.910Z,43.92
2023-02-22T21:58:58.940Z,42.03
2023-02-22T22:01:30.874Z,37.80
2023-02-22T22:03:59.801Z,59.10
2023-02-22T22:06:28.114Z,49.95
2023-02-22T22:08:55.010Z,53.75
2023-02-22T22:11:21.962Z,48.75
2023-02-22T22:13:49.101Z,42.85
2023-02-22T22:16:18.516Z,47.75
2023-02-22T22:18:46.750Z,42.03
2023-02-22T22:21:17.729Z,49.95
2023-02-22T22:23:46.928Z,38.70
2023-02-22T22:26:19.892Z,43.08
2023-02-22T22:28:51.905Z,47.10
2023-02-22T22:31:20.732Z,40.42
2023-02-22T22:33:47.691Z,43.67
2023-02-22T22:36:16.428Z,45.03
2023-02-22T22:38:46.881Z,42.88
2023-02-22T22:41:15.200Z,44.80
2023-02-22T22:43:45.872Z,39.78
2023-02-22T22:46:17.219Z,41.67
2023-02-22T22:51:16.694Z,41.60
2023-02-22T22:53:45.338Z,40.00
2023-02-22T22:56:18.275Z,44.38
2023-02-22T22:58:53.012Z,44.10
2023-02-22T23:01:26.906Z,40.30
2023-02-22T23:03:58.192Z,38.22
2023-02-22T23:06:28.020Z,40.42
2023-02-22T23:09:11.408Z,37.97
2023-02-22T23:11:44.391Z,42.45
2023-02-22T23:14:26.534Z,36.08
2023-02-22T23:16:59.862Z,39.35
2023-02-22T23:19:26.370Z,41.85
2023-02-22T23:21:52.839Z,39.08
2023-02-22T23:24:21.024Z,42.40
2023-02-22T23:26:50.781Z,39.13
2023-02-22T23:29:20.009Z,40.05
2023-02-22T23:31:48.494Z,44.00
2023-02-22T23:34:20.970Z,42.47
2023-02-22T23:36:47.668Z,43.22
2023-02-22T23:39:15.664Z,45.22
2023-02-22T23:41:42.500Z,42.65
2023-02-22T23:44:17.438Z,45.53
2023-02-22T23:46:47.872Z,44.60
2023-02-22T23:49:19.950Z,37.97
2023-02-22T23:51:47.247Z,37.35
2023-02-22T23:54:19.101Z,40.95
2023-02-22T23:56:58.372Z,38.92
2023-02-22T23:59:26.819Z,41.85
